sensor_id;sensor_type;location;lat;lon;timestamp;temperature;humidity
25914;DHT22;13718;50.922;5.346;2023-08-20T00:01:24;20.30;99.90
25914;DHT22;13718;50.922;5.346;2023-08-20T00:03:51;20.20;99.90
25914;DHT22;13718;50.922;5.346;2023-08-20T00:06:17;20.20;99.90
25914;DHT22;13718;50.922;5.346;2023-08-20T00:08:43;20.20;99.90
25914;DHT22;13718;50.922;5.346;2023-08-20T00:11:08;20.20;99.90
25914;DHT22;13718;50.922;5.346;2023-08-20T00:13:35;20.10;99.90
25914;DHT22;13718;50.922;5.346;2023-08-20T00:16:00;20.10;99.90
25914;DHT22;13718;50.922;5.346;2023-08-20T00:18:27;20.00;99.90
25914;DHT22;13718;50.922;5.346;2023-08-20T00:20:53;20.00;99.90
25914;DHT22;13718;50.922;5.346;2023-08-20T00:23:19;20.00;99.90
25914;DHT22;13718;50.922;5.346;2023-08-20T00:25:45;19.90;99.90
25914;DHT22;13718;50.922;5.346;2023-08-20T00:28:10;20.00;99.90
25914;DHT22;13718;50.922;5.346;2023-08-20T00:30:36;20.00;99.90
25914;DHT22;13718;50.922;5.346;2023-08-20T00:33:02;19.90;99.90
25914;DHT22;13718;50.922;5.346;2023-08-20T00:35:27;19.90;99.90
25914;DHT22;13718;50.922;5.346;2023-08-20T00:37:53;19.90;99.90
25914;DHT22;13718;50.922;5.346;2023-08-20T00:40:18;19.90;99.90
25914;DHT22;13718;50.922;5.346;2023-08-20T00:42:44;19.90;99.90
25914;DHT22;13718;50.922;5.346;2023-08-20T00:45:10;19.90;99.90
25914;DHT22;13718;50.922;5.346;2023-08-20T00:47:35;19.80;99.90
25914;DHT22;13718;50.922;5.346;2023-08-20T00:50:02;19.80;99.90
25914;DHT22;13718;50.922;5.346;2023-08-20T00:52:32;19.80;99.90
25914;DHT22;13718;50.922;5.346;2023-08-20T00:54:58;19.80;99.90
25914;DHT22;13718;50.922;5.346;2023-08-20T00:57:24;19.80;99.90
25914;DHT22;13718;50.922;5.346;2023-08-20T00:59:50;19.70;99.90
25914;DHT22;13718;50.922;5.346;2023-08-20T01:02:17;19.70;99.90
25914;DHT22;13718;50.922;5.346;2023-08-20T01:04:43;19.70;99.90
25914;DHT22;13718;50.922;5.346;2023-08-20T01:07:24;19.70;99.90
25914;DHT22;13718;50.922;5.346;2023-08-20T01:12:30;19.60;99.90
25914;DHT22;13718;50.922;5.346;2023-08-20T01:14:56;19.60;99.90
25914;DHT22;13718;50.922;5.346;2023-08-20T01:17:22;19.60;99.90
25914;DHT22;13718;50.922;5.346;2023-08-20T01:19:47;19.60;99.90
25914;DHT22;13718;50.922;5.346;2023-08-20T01:27:44;19.60;99.90
25914;DHT22;13718;50.922;5.346;2023-08-20T01:30:12;19.50;99.90
25914;DHT22;13718;50.922;5.346;2023-08-20T01:32:38;19.50;99.90
25914;DHT22;13718;50.922;5.346;2023-08-20T01:35:12;19.50;99.90
25914;DHT22;13718;50.922;5.346;2023-08-20T01:37:39;19.50;99.90
25914;DHT22;13718;50.922;5.346;2023-08-20T01:40:06;19.50;99.90
25914;DHT22;13718;50.922;5.346;2023-08-20T01:42:33;19.50;99.90
25914;DHT22;13718;50.922;5.346;2023-08-20T01:44:58;19.40;99.90
25914;DHT22;13718;50.922;5.346;2023-08-20T01:47:24;19.50;99.90
25914;DHT22;13718;50.922;5.346;2023-08-20T01:49:49;19.40;99.90
25914;DHT22;13718;50.922;5.346;2023-08-20T01:52:15;19.70;99.90
25914;DHT22;13718;50.922;5.346;2023-08-20T01:54:40;19.80;99.90
25914;DHT22;13718;50.922;5.346;2023-08-20T01:57:06;19.70;99.90
25914;DHT22;13718;50.922;5.346;2023-08-20T01:59:31;19.50;99.90
25914;DHT22;13718;50.922;5.346;2023-08-20T02:01:57;19.50;99.90
25914;DHT22;13718;50.922;5.346;2023-08-20T02:04:22;19.40;99.90
25914;DHT22;13718;50.922;5.346;2023-08-20T02:06:48;19.40;99.90
25914;DHT22;13718;50.922;5.346;2023-08-20T02:09:13;19.40;99.90
25914;DHT22;13718;50.922;5.346;2023-08-20T02:11:39;19.40;99.90
25914;DHT22;13718;50.922;5.346;2023-08-20T02:14:05;19.40;99.90
25914;DHT22;13718;50.922;5.346;2023-08-20T02:16:30;19.50;99.90
25914;DHT22;13718;50.922;5.346;2023-08-20T02:18:56;19.50;99.90
25914;DHT22;13718;50.922;5.346;2023-08-20T02:21:21;19.50;99.90
25914;DHT22;13718;50.922;5.346;2023-08-20T02:23:47;19.50;99.90
25914;DHT22;13718;50.922;5.346;2023-08-20T02:26:12;19.50;99.90
25914;DHT22;13718;50.922;5.346;2023-08-20T02:28:38;19.50;99.90
25914;DHT22;13718;50.922;5.346;2023-08-20T02:31:04;19.50;99.90
25914;DHT22;13718;50.922;5.346;2023-08-20T02:33:30;19.50;99.90
25914;DHT22;13718;50.922;5.346;2023-08-20T02:36:00;19.50;99.90
25914;DHT22;13718;50.922;5.346;2023-08-20T02:38:25;19.50;99.90
25914;DHT22;13718;50.922;5.346;2023-08-20T02:40:51;19.40;99.90
25914;DHT22;13718;50.922;5.346;2023-08-20T02:43:16;19.40;99.90
25914;DHT22;13718;50.922;5.346;2023-08-20T02:45:42;19.40;99.90
25914;DHT22;13718;50.922;5.346;2023-08-20T02:48:08;19.40;99.90
25914;DHT22;13718;50.922;5.346;2023-08-20T02:50:34;19.30;99.90
25914;DHT22;13718;50.922;5.346;2023-08-20T02:53:00;19.40;99.90
25914;DHT22;13718;50.922;5.346;2023-08-20T02:55:25;19.50;99.90
25914;DHT22;13718;50.922;5.346;2023-08-20T02:57:51;19.50;99.90
25914;DHT22;13718;50.922;5.346;2023-08-20T03:00:16;19.60;99.90
25914;DHT22;13718;50.922;5.346;2023-08-20T03:02:42;19.70;99.90
25914;DHT22;13718;50.922;5.346;2023-08-20T03:05:09;19.70;99.90
25914;DHT22;13718;50.922;5.346;2023-08-20T03:07:35;19.80;99.90
25914;DHT22;13718;50.922;5.346;2023-08-20T03:10:00;19.80;99.90
25914;DHT22;13718;50.922;5.346;2023-08-20T03:12:26;19.90;99.90
25914;DHT22;13718;50.922;5.346;2023-08-20T03:14:52;19.90;99.90
25914;DHT22;13718;50.922;5.346;2023-08-20T03:17:17;19.90;99.90
25914;DHT22;13718;50.922;5.346;2023-08-20T03:19:58;20.00;99.90
25914;DHT22;13718;50.922;5.346;2023-08-20T03:22:25;20.20;99.90
25914;DHT22;13718;50.922;5.346;2023-08-20T03:24:51;20.30;99.90
25914;DHT22;13718;50.922;5.346;2023-08-20T03:27:17;20.30;99.90
25914;DHT22;13718;50.922;5.346;2023-08-20T03:29:43;20.40;99.90
25914;DHT22;13718;50.922;5.346;2023-08-20T03:32:09;20.60;99.90
25914;DHT22;13718;50.922;5.346;2023-08-20T03:34:35;20.60;99.90
25914;DHT22;13718;50.922;5.346;2023-08-20T03:37:01;20.60;99.90
25914;DHT22;13718;50.922;5.346;2023-08-20T03:39:27;20.50;99.90
25914;DHT22;13718;50.922;5.346;2023-08-20T03:41:53;20.50;99.90
25914;DHT22;13718;50.922;5.346;2023-08-20T03:44:18;20.50;99.90
25914;DHT22;13718;50.922;5.346;2023-08-20T03:46:44;20.50;99.90
25914;DHT22;13718;50.922;5.346;2023-08-20T03:49:10;20.30;99.90
25914;DHT22;13718;50.922;5.346;2023-08-20T03:51:35;20.20;99.90
25914;DHT22;13718;50.922;5.346;2023-08-20T03:54:01;20.20;99.90
25914;DHT22;13718;50.922;5.346;2023-08-20T03:56:27;20.10;99.90
25914;DHT22;13718;50.922;5.346;2023-08-20T03:58:52;20.10;99.90
25914;DHT22;13718;50.922;5.346;2023-08-20T04:01:18;20.10;99.90
25914;DHT22;13718;50.922;5.346;2023-08-20T04:03:45;20.00;99.90
25914;DHT22;13718;50.922;5.346;2023-08-20T04:06:11;19.90;99.90
25914;DHT22;13718;50.922;5.346;2023-08-20T04:08:36;20.00;99.90
25914;DHT22;13718;50.922;5.346;2023-08-20T04:11:02;19.80;99.90
25914;DHT22;13718;50.922;5.346;2023-08-20T04:13:29;19.80;99.90
25914;DHT22;13718;50.922;5.346;2023-08-20T04:15:55;19.70;99.90
25914;DHT22;13718;50.922;5.346;2023-08-20T04:18:20;19.60;99.90
25914;DHT22;13718;50.922;5.346;2023-08-20T04:20:46;19.50;99.90
25914;DHT22;13718;50.922;5.346;2023-08-20T04:23:11;19.40;99.90
25914;DHT22;13718;50.922;5.346;2023-08-20T04:25:37;19.40;99.90
25914;DHT22;13718;50.922;5.346;2023-08-20T04:28:03;19.40;99.90
25914;DHT22;13718;50.922;5.346;2023-08-20T04:30:28;19.50;99.90
25914;DHT22;13718;50.922;5.346;2023-08-20T04:32:54;19.50;99.90
25914;DHT22;13718;50.922;5.346;2023-08-20T04:35:20;19.50;99.90
25914;DHT22;13718;50.922;5.346;2023-08-20T04:37:46;19.50;99.90
25914;DHT22;13718;50.922;5.346;2023-08-20T04:40:11;19.60;99.90
25914;DHT22;13718;50.922;5.346;2023-08-20T04:42:37;19.60;99.90
25914;DHT22;13718;50.922;5.346;2023-08-20T04:45:03;19.60;99.90
25914;DHT22;13718;50.922;5.346;2023-08-20T04:47:29;19.60;99.90
25914;DHT22;13718;50.922;5.346;2023-08-20T04:49:54;19.60;99.90
25914;DHT22;13718;50.922;5.346;2023-08-20T04:52:20;19.60;99.90
25914;DHT22;13718;50.922;5.346;2023-08-20T04:54:47;19.60;99.90
25914;DHT22;13718;50.922;5.346;2023-08-20T04:57:12;19.60;99.90
25914;DHT22;13718;50.922;5.346;2023-08-20T04:59:38;19.60;99.90
25914;DHT22;13718;50.922;5.346;2023-08-20T05:02:04;19.60;99.90
25914;DHT22;13718;50.922;5.346;2023-08-20T05:04:29;19.60;99.90
25914;DHT22;13718;50.922;5.346;2023-08-20T05:06:55;19.70;99.90
25914;DHT22;13718;50.922;5.346;2023-08-20T05:09:21;19.70;99.90
25914;DHT22;13718;50.922;5.346;2023-08-20T05:11:47;19.80;99.90
25914;DHT22;13718;50.922;5.346;2023-08-20T05:14:12;19.80;99.90
25914;DHT22;13718;50.922;5.346;2023-08-20T05:16:38;19.90;99.90
25914;DHT22;13718;50.922;5.346;2023-08-20T05:19:04;19.90;99.90
25914;DHT22;13718;50.922;5.346;2023-08-20T05:21:29;19.90;99.90
25914;DHT22;13718;50.922;5.346;2023-08-20T05:23:55;19.90;99.90
25914;DHT22;13718;50.922;5.346;2023-08-20T05:26:22;20.00;99.90
25914;DHT22;13718;50.922;5.346;2023-08-20T05:28:47;20.00;99.90
25914;DHT22;13718;50.922;5.346;2023-08-20T05:31:13;20.00;99.90
25914;DHT22;13718;50.922;5.346;2023-08-20T05:33:38;20.10;99.90
25914;DHT22;13718;50.922;5.346;2023-08-20T05:36:04;20.10;99.90
25914;DHT22;13718;50.922;5.346;2023-08-20T05:38:30;20.20;99.90
25914;DHT22;13718;50.922;5.346;2023-08-20T05:40:55;20.20;99.90
25914;DHT22;13718;50.922;5.346;2023-08-20T05:43:21;20.30;99.90
25914;DHT22;13718;50.922;5.346;2023-08-20T05:45:46;20.40;99.90
25914;DHT22;13718;50.922;5.346;2023-08-20T05:48:12;20.50;99.90
25914;DHT22;13718;50.922;5.346;2023-08-20T05:50:38;20.50;99.90
25914;DHT22;13718;50.922;5.346;2023-08-20T05:53:03;20.60;99.90
25914;DHT22;13718;50.922;5.346;2023-08-20T05:55:29;20.70;99.90
25914;DHT22;13718;50.922;5.346;2023-08-20T05:57:54;20.80;99.90
25914;DHT22;13718;50.922;5.346;2023-08-20T06:00:20;20.90;99.90
25914;DHT22;13718;50.922;5.346;2023-08-20T06:02:45;20.90;99.90
25914;DHT22;13718;50.922;5.346;2023-08-20T06:05:11;21.00;99.90
25914;DHT22;13718;50.922;5.346;2023-08-20T06:07:37;21.10;99.90
25914;DHT22;13718;50.922;5.346;2023-08-20T06:10:02;21.10;99.90
25914;DHT22;13718;50.922;5.346;2023-08-20T06:12:28;21.30;99.90
25914;DHT22;13718;50.922;5.346;2023-08-20T06:14:53;21.80;99.90
25914;DHT22;13718;50.922;5.346;2023-08-20T06:17:19;22.50;99.90
25914;DHT22;13718;50.922;5.346;2023-08-20T06:19:44;23.00;99.90
25914;DHT22;13718;50.922;5.346;2023-08-20T06:22:10;23.50;99.90
25914;DHT22;13718;50.922;5.346;2023-08-20T06:24:36;24.30;99.90
25914;DHT22;13718;50.922;5.346;2023-08-20T06:27:01;25.00;99.90
25914;DHT22;13718;50.922;5.346;2023-08-20T06:29:27;25.40;99.90
25914;DHT22;13718;50.922;5.346;2023-08-20T06:31:53;25.40;99.90
25914;DHT22;13718;50.922;5.346;2023-08-20T06:34:18;25.20;99.90
25914;DHT22;13718;50.922;5.346;2023-08-20T06:36:44;25.00;99.90
25914;DHT22;13718;50.922;5.346;2023-08-20T06:39:09;24.80;99.90
25914;DHT22;13718;50.922;5.346;2023-08-20T06:41:35;24.70;99.90
25914;DHT22;13718;50.922;5.346;2023-08-20T06:44:02;24.40;99.90
25914;DHT22;13718;50.922;5.346;2023-08-20T06:46:27;24.10;99.90
25914;DHT22;13718;50.922;5.346;2023-08-20T06:48:53;24.00;99.90
25914;DHT22;13718;50.922;5.346;2023-08-20T06:51:20;23.90;99.90
25914;DHT22;13718;50.922;5.346;2023-08-20T06:53:47;23.80;99.90
25914;DHT22;13718;50.922;5.346;2023-08-20T06:56:12;23.70;99.90
25914;DHT22;13718;50.922;5.346;2023-08-20T06:58:39;23.70;99.90
25914;DHT22;13718;50.922;5.346;2023-08-20T07:01:06;23.70;99.90
25914;DHT22;13718;50.922;5.346;2023-08-20T07:03:39;23.80;99.90
25914;DHT22;13718;50.922;5.346;2023-08-20T07:06:06;23.90;99.90
25914;DHT22;13718;50.922;5.346;2023-08-20T07:08:31;24.10;99.90
25914;DHT22;13718;50.922;5.346;2023-08-20T07:10:57;24.20;99.90
25914;DHT22;13718;50.922;5.346;2023-08-20T07:13:23;24.20;99.90
25914;DHT22;13718;50.922;5.346;2023-08-20T07:15:49;24.10;99.90
25914;DHT22;13718;50.922;5.346;2023-08-20T07:18:15;24.10;99.90
25914;DHT22;13718;50.922;5.346;2023-08-20T07:20:44;24.10;99.90
25914;DHT22;13718;50.922;5.346;2023-08-20T07:23:10;24.10;99.90
25914;DHT22;13718;50.922;5.346;2023-08-20T07:25:37;24.20;99.90
25914;DHT22;13718;50.922;5.346;2023-08-20T07:28:07;24.20;99.90
25914;DHT22;13718;50.922;5.346;2023-08-20T07:30:32;24.30;99.90
25914;DHT22;13718;50.922;5.346;2023-08-20T07:32:58;24.30;99.90
25914;DHT22;13718;50.922;5.346;2023-08-20T07:35:24;24.30;99.90
25914;DHT22;13718;50.922;5.346;2023-08-20T07:37:50;24.80;99.90
25914;DHT22;13718;50.922;5.346;2023-08-20T07:40:16;25.50;99.90
25914;DHT22;13718;50.922;5.346;2023-08-20T07:42:41;25.70;99.90
25914;DHT22;13718;50.922;5.346;2023-08-20T07:45:08;25.70;99.90
25914;DHT22;13718;50.922;5.346;2023-08-20T07:47:35;25.70;99.90
25914;DHT22;13718;50.922;5.346;2023-08-20T07:50:00;26.00;99.90
25914;DHT22;13718;50.922;5.346;2023-08-20T07:52:26;27.70;99.90
25914;DHT22;13718;50.922;5.346;2023-08-20T07:54:52;29.60;99.90
25914;DHT22;13718;50.922;5.346;2023-08-20T07:57:17;31.20;99.90
25914;DHT22;13718;50.922;5.346;2023-08-20T07:59:43;32.60;99.90
25914;DHT22;13718;50.922;5.346;2023-08-20T08:02:08;33.90;98.10
25914;DHT22;13718;50.922;5.346;2023-08-20T08:04:34;35.00;95.50
25914;DHT22;13718;50.922;5.346;2023-08-20T08:07:00;35.90;93.10
25914;DHT22;13718;50.922;5.346;2023-08-20T08:09:30;36.60;91.40
25914;DHT22;13718;50.922;5.346;2023-08-20T08:11:57;37.10;88.90
25914;DHT22;13718;50.922;5.346;2023-08-20T08:14:23;37.50;86.70
25914;DHT22;13718;50.922;5.346;2023-08-20T08:16:49;38.00;82.90
25914;DHT22;13718;50.922;5.346;2023-08-20T08:19:15;38.50;80.00
25914;DHT22;13718;50.922;5.346;2023-08-20T08:21:42;38.70;77.30
25914;DHT22;13718;50.922;5.346;2023-08-20T08:24:08;39.00;76.30
25914;DHT22;13718;50.922;5.346;2023-08-20T08:26:34;39.40;74.60
25914;DHT22;13718;50.922;5.346;2023-08-20T08:29:03;39.90;72.80
25914;DHT22;13718;50.922;5.346;2023-08-20T08:31:29;40.30;70.00
25914;DHT22;13718;50.922;5.346;2023-08-20T08:33:55;40.30;69.30
25914;DHT22;13718;50.922;5.346;2023-08-20T08:36:20;40.20;68.40
25914;DHT22;13718;50.922;5.346;2023-08-20T08:38:46;40.50;67.20
25914;DHT22;13718;50.922;5.346;2023-08-20T08:41:13;40.80;66.30
25914;DHT22;13718;50.922;5.346;2023-08-20T08:43:39;41.10;66.20
25914;DHT22;13718;50.922;5.346;2023-08-20T08:46:14;41.40;64.20
25914;DHT22;13718;50.922;5.346;2023-08-20T08:48:43;41.50;63.50
25914;DHT22;13718;50.922;5.346;2023-08-20T08:51:09;41.70;62.30
25914;DHT22;13718;50.922;5.346;2023-08-20T08:53:35;42.20;61.20
25914;DHT22;13718;50.922;5.346;2023-08-20T08:56:02;42.40;60.40
25914;DHT22;13718;50.922;5.346;2023-08-20T08:58:29;42.30;59.50
25914;DHT22;13718;50.922;5.346;2023-08-20T09:00:54;42.00;60.30
25914;DHT22;13718;50.922;5.346;2023-08-20T09:03:20;41.60;59.20
25914;DHT22;13718;50.922;5.346;2023-08-20T09:08:26;41.80;59.70
25914;DHT22;13718;50.922;5.346;2023-08-20T09:10:53;42.00;59.10
25914;DHT22;13718;50.922;5.346;2023-08-20T09:13:23;41.80;58.00
25914;DHT22;13718;50.922;5.346;2023-08-20T09:15:53;42.00;58.10
25914;DHT22;13718;50.922;5.346;2023-08-20T09:18:19;42.10;57.20
25914;DHT22;13718;50.922;5.346;2023-08-20T09:20:48;42.20;57.40
25914;DHT22;13718;50.922;5.346;2023-08-20T09:23:15;42.00;56.90
25914;DHT22;13718;50.922;5.346;2023-08-20T09:25:42;40.50;58.70
25914;DHT22;13718;50.922;5.346;2023-08-20T09:28:08;38.20;62.10
25914;DHT22;13718;50.922;5.346;2023-08-20T09:30:33;36.00;65.00
25914;DHT22;13718;50.922;5.346;2023-08-20T09:33:12;34.40;70.20
25914;DHT22;13718;50.922;5.346;2023-08-20T09:35:48;33.10;72.00
25914;DHT22;13718;50.922;5.346;2023-08-20T09:38:14;32.20;75.00
25914;DHT22;13718;50.922;5.346;2023-08-20T09:40:40;31.70;77.60
25914;DHT22;13718;50.922;5.346;2023-08-20T09:43:07;31.10;79.60
25914;DHT22;13718;50.922;5.346;2023-08-20T09:45:34;30.40;81.40
25914;DHT22;13718;50.922;5.346;2023-08-20T09:48:04;30.10;83.70
25914;DHT22;13718;50.922;5.346;2023-08-20T09:50:32;29.80;85.00
25914;DHT22;13718;50.922;5.346;2023-08-20T09:53:27;29.70;86.10
25914;DHT22;13718;50.922;5.346;2023-08-20T09:56:10;29.40;86.60
25914;DHT22;13718;50.922;5.346;2023-08-20T09:58:40;29.10;87.30
25914;DHT22;13718;50.922;5.346;2023-08-20T10:01:07;28.80;88.30
25914;DHT22;13718;50.922;5.346;2023-08-20T10:03:33;28.80;88.20
25914;DHT22;13718;50.922;5.346;2023-08-20T10:06:00;28.70;89.40
25914;DHT22;13718;50.922;5.346;2023-08-20T10:08:27;28.60;90.00
25914;DHT22;13718;50.922;5.346;2023-08-20T10:10:53;28.50;90.20
25914;DHT22;13718;50.922;5.346;2023-08-20T10:13:18;28.30;89.30
25914;DHT22;13718;50.922;5.346;2023-08-20T10:15:45;28.20;89.70
25914;DHT22;13718;50.922;5.346;2023-08-20T10:18:11;28.20;89.80
25914;DHT22;13718;50.922;5.346;2023-08-20T10:20:39;28.10;88.60
25914;DHT22;13718;50.922;5.346;2023-08-20T10:23:05;27.90;89.20
25914;DHT22;13718;50.922;5.346;2023-08-20T10:25:40;27.90;89.10
25914;DHT22;13718;50.922;5.346;2023-08-20T10:28:24;27.90;89.10
25914;DHT22;13718;50.922;5.346;2023-08-20T10:33:30;27.70;88.10
25914;DHT22;13718;50.922;5.346;2023-08-20T10:35:55;27.60;87.10
25914;DHT22;13718;50.922;5.346;2023-08-20T10:38:22;27.70;86.00
25914;DHT22;13718;50.922;5.346;2023-08-20T10:40:57;27.60;86.10
25914;DHT22;13718;50.922;5.346;2023-08-20T10:43:29;27.70;86.70
25914;DHT22;13718;50.922;5.346;2023-08-20T10:46:16;27.70;84.80
25914;DHT22;13718;50.922;5.346;2023-08-20T10:49:02;27.70;86.50
25914;DHT22;13718;50.922;5.346;2023-08-20T10:51:29;27.90;86.40
25914;DHT22;13718;50.922;5.346;2023-08-20T10:56:46;28.00;85.80
25914;DHT22;13718;50.922;5.346;2023-08-20T10:59:15;28.10;86.80
25914;DHT22;13718;50.922;5.346;2023-08-20T11:01:46;28.00;88.30
25914;DHT22;13718;50.922;5.346;2023-08-20T11:04:13;28.10;88.40
25914;DHT22;13718;50.922;5.346;2023-08-20T11:06:39;28.10;88.10
25914;DHT22;13718;50.922;5.346;2023-08-20T11:09:05;28.10;88.50
25914;DHT22;13718;50.922;5.346;2023-08-20T11:11:33;28.30;88.80
25914;DHT22;13718;50.922;5.346;2023-08-20T11:14:06;28.30;87.70
25914;DHT22;13718;50.922;5.346;2023-08-20T11:16:34;28.10;88.80
25914;DHT22;13718;50.922;5.346;2023-08-20T11:18:59;28.00;89.20
25914;DHT22;13718;50.922;5.346;2023-08-20T11:21:25;27.90;89.90
25914;DHT22;13718;50.922;5.346;2023-08-20T11:23:51;27.90;90.90
25914;DHT22;13718;50.922;5.346;2023-08-20T11:26:18;27.90;89.80
25914;DHT22;13718;50.922;5.346;2023-08-20T11:28:46;27.90;89.90
25914;DHT22;13718;50.922;5.346;2023-08-20T11:31:12;28.00;90.10
25914;DHT22;13718;50.922;5.346;2023-08-20T11:33:38;28.10;90.10
25914;DHT22;13718;50.922;5.346;2023-08-20T11:36:05;28.30;90.20
25914;DHT22;13718;50.922;5.346;2023-08-20T11:38:30;28.30;90.00
25914;DHT22;13718;50.922;5.346;2023-08-20T11:40:58;28.30;89.60
25914;DHT22;13718;50.922;5.346;2023-08-20T11:43:27;28.40;89.40
25914;DHT22;13718;50.922;5.346;2023-08-20T11:45:52;28.40;90.00
25914;DHT22;13718;50.922;5.346;2023-08-20T11:48:20;28.70;88.40
25914;DHT22;13718;50.922;5.346;2023-08-20T11:50:46;28.80;86.50
25914;DHT22;13718;50.922;5.346;2023-08-20T11:53:12;28.50;87.70
25914;DHT22;13718;50.922;5.346;2023-08-20T11:55:40;28.10;88.60
25914;DHT22;13718;50.922;5.346;2023-08-20T11:58:09;27.80;89.80
25914;DHT22;13718;50.922;5.346;2023-08-20T12:00:36;27.90;89.20
25914;DHT22;13718;50.922;5.346;2023-08-20T12:03:02;27.90;89.00
25914;DHT22;13718;50.922;5.346;2023-08-20T12:05:29;27.80;90.30
25914;DHT22;13718;50.922;5.346;2023-08-20T12:07:59;27.70;90.50
25914;DHT22;13718;50.922;5.346;2023-08-20T12:10:27;27.70;90.30
25914;DHT22;13718;50.922;5.346;2023-08-20T12:12:54;27.60;90.40
25914;DHT22;13718;50.922;5.346;2023-08-20T12:15:20;27.60;90.50
25914;DHT22;13718;50.922;5.346;2023-08-20T12:18:03;27.50;90.80
25914;DHT22;13718;50.922;5.346;2023-08-20T12:20:35;27.50;91.10
25914;DHT22;13718;50.922;5.346;2023-08-20T12:23:06;27.60;91.60
25914;DHT22;13718;50.922;5.346;2023-08-20T12:25:34;27.60;90.90
25914;DHT22;13718;50.922;5.346;2023-08-20T12:28:01;27.70;90.90
25914;DHT22;13718;50.922;5.346;2023-08-20T12:30:28;27.70;91.10
25914;DHT22;13718;50.922;5.346;2023-08-20T12:32:54;27.80;91.10
25914;DHT22;13718;50.922;5.346;2023-08-20T12:35:20;28.00;90.60
25914;DHT22;13718;50.922;5.346;2023-08-20T12:37:45;28.20;90.50
25914;DHT22;13718;50.922;5.346;2023-08-20T12:40:11;28.20;90.30
25914;DHT22;13718;50.922;5.346;2023-08-20T12:42:38;28.30;90.00
25914;DHT22;13718;50.922;5.346;2023-08-20T12:45:07;28.60;88.90
25914;DHT22;13718;50.922;5.346;2023-08-20T12:47:34;28.60;89.40
25914;DHT22;13718;50.922;5.346;2023-08-20T12:49:59;28.50;88.80
25914;DHT22;13718;50.922;5.346;2023-08-20T12:52:25;28.40;89.00
25914;DHT22;13718;50.922;5.346;2023-08-20T12:54:50;28.30;89.70
25914;DHT22;13718;50.922;5.346;2023-08-20T12:57:16;28.30;89.70
25914;DHT22;13718;50.922;5.346;2023-08-20T12:59:41;28.60;88.00
25914;DHT22;13718;50.922;5.346;2023-08-20T13:02:07;28.90;86.30
25914;DHT22;13718;50.922;5.346;2023-08-20T13:04:34;28.80;87.00
25914;DHT22;13718;50.922;5.346;2023-08-20T13:06:59;28.60;88.80
25914;DHT22;13718;50.922;5.346;2023-08-20T13:09:27;28.60;87.60
25914;DHT22;13718;50.922;5.346;2023-08-20T13:11:53;28.40;89.30
25914;DHT22;13718;50.922;5.346;2023-08-20T13:14:21;28.30;89.90
25914;DHT22;13718;50.922;5.346;2023-08-20T13:16:46;28.20;89.90
25914;DHT22;13718;50.922;5.346;2023-08-20T13:19:12;28.20;89.80
25914;DHT22;13718;50.922;5.346;2023-08-20T13:21:38;28.20;89.30
25914;DHT22;13718;50.922;5.346;2023-08-20T13:24:04;28.20;89.60
25914;DHT22;13718;50.922;5.346;2023-08-20T13:26:29;28.50;89.00
25914;DHT22;13718;50.922;5.346;2023-08-20T13:28:55;28.90;86.70
25914;DHT22;13718;50.922;5.346;2023-08-20T13:31:20;29.00;86.00
25914;DHT22;13718;50.922;5.346;2023-08-20T13:33:46;29.00;87.00
25914;DHT22;13718;50.922;5.346;2023-08-20T13:36:12;29.00;87.40
25914;DHT22;13718;50.922;5.346;2023-08-20T13:38:37;29.00;86.20
25914;DHT22;13718;50.922;5.346;2023-08-20T13:41:03;29.00;86.10
25914;DHT22;13718;50.922;5.346;2023-08-20T13:43:28;29.00;85.70
25914;DHT22;13718;50.922;5.346;2023-08-20T13:45:54;29.00;86.30
25914;DHT22;13718;50.922;5.346;2023-08-20T13:48:19;28.90;86.60
25914;DHT22;13718;50.922;5.346;2023-08-20T13:50:45;28.70;87.00
25914;DHT22;13718;50.922;5.346;2023-08-20T13:53:11;28.50;88.40
25914;DHT22;13718;50.922;5.346;2023-08-20T13:55:36;28.40;88.40
25914;DHT22;13718;50.922;5.346;2023-08-20T13:58:02;28.20;87.20
25914;DHT22;13718;50.922;5.346;2023-08-20T14:00:27;28.10;87.70
25914;DHT22;13718;50.922;5.346;2023-08-20T14:02:53;28.10;88.20
25914;DHT22;13718;50.922;5.346;2023-08-20T14:05:18;28.10;87.40
25914;DHT22;13718;50.922;5.346;2023-08-20T14:07:45;28.30;86.80
25914;DHT22;13718;50.922;5.346;2023-08-20T14:10:10;28.30;87.10
25914;DHT22;13718;50.922;5.346;2023-08-20T14:12:36;28.40;88.00
25914;DHT22;13718;50.922;5.346;2023-08-20T14:15:01;28.40;87.50
25914;DHT22;13718;50.922;5.346;2023-08-20T14:17:27;28.40;87.30
25914;DHT22;13718;50.922;5.346;2023-08-20T14:19:53;28.30;87.00
25914;DHT22;13718;50.922;5.346;2023-08-20T14:22:18;28.30;87.30
25914;DHT22;13718;50.922;5.346;2023-08-20T14:24:44;28.30;87.90
25914;DHT22;13718;50.922;5.346;2023-08-20T14:27:10;28.30;88.70
25914;DHT22;13718;50.922;5.346;2023-08-20T14:29:36;28.20;89.50
25914;DHT22;13718;50.922;5.346;2023-08-20T14:32:01;28.20;88.90
25914;DHT22;13718;50.922;5.346;2023-08-20T14:34:29;28.20;88.20
25914;DHT22;13718;50.922;5.346;2023-08-20T14:36:55;28.20;88.00
25914;DHT22;13718;50.922;5.346;2023-08-20T14:39:20;28.20;88.70
25914;DHT22;13718;50.922;5.346;2023-08-20T14:41:46;28.20;88.30
25914;DHT22;13718;50.922;5.346;2023-08-20T14:44:11;28.20;88.60
25914;DHT22;13718;50.922;5.346;2023-08-20T14:46:37;28.20;88.40
25914;DHT22;13718;50.922;5.346;2023-08-20T14:49:03;28.20;88.70
25914;DHT22;13718;50.922;5.346;2023-08-20T14:51:29;28.20;90.00
25914;DHT22;13718;50.922;5.346;2023-08-20T14:53:54;28.20;89.40
25914;DHT22;13718;50.922;5.346;2023-08-20T14:56:20;28.20;88.00
25914;DHT22;13718;50.922;5.346;2023-08-20T14:58:45;28.40;87.00
25914;DHT22;13718;50.922;5.346;2023-08-20T15:01:11;28.50;87.20
25914;DHT22;13718;50.922;5.346;2023-08-20T15:03:37;28.60;88.60
25914;DHT22;13718;50.922;5.346;2023-08-20T15:06:02;28.60;89.40
25914;DHT22;13718;50.922;5.346;2023-08-20T15:08:28;28.50;87.60
25914;DHT22;13718;50.922;5.346;2023-08-20T15:10:58;28.60;87.90
25914;DHT22;13718;50.922;5.346;2023-08-20T15:13:26;28.80;86.70
25914;DHT22;13718;50.922;5.346;2023-08-20T15:15:53;28.80;87.40
25914;DHT22;13718;50.922;5.346;2023-08-20T15:18:19;28.80;88.80
25914;DHT22;13718;50.922;5.346;2023-08-20T15:20:45;28.60;88.30
25914;DHT22;13718;50.922;5.346;2023-08-20T15:23:10;28.40;88.20
25914;DHT22;13718;50.922;5.346;2023-08-20T15:25:36;28.30;87.90
25914;DHT22;13718;50.922;5.346;2023-08-20T15:28:01;28.30;89.30
25914;DHT22;13718;50.922;5.346;2023-08-20T15:30:29;28.30;88.50
25914;DHT22;13718;50.922;5.346;2023-08-20T15:32:54;28.30;88.10
25914;DHT22;13718;50.922;5.346;2023-08-20T15:35:20;28.30;88.30
25914;DHT22;13718;50.922;5.346;2023-08-20T15:37:46;28.30;88.80
25914;DHT22;13718;50.922;5.346;2023-08-20T15:40:11;28.20;89.10
25914;DHT22;13718;50.922;5.346;2023-08-20T15:42:38;28.20;89.60